createdAt,value
2018-01-26T00:01:37.742Z,29.63
2018-01-26T00:04:06.270Z,34.43
2018-01-26T00:06:34.607Z,27.63
2018-01-26T00:09:03.058Z,31.73
2018-01-26T00:11:31.527Z,28.57
2018-01-26T00:13:59.823Z,27.03
2018-01-26T00:16:28.145Z,27.00
2018-01-26T00:18:56.467Z,30.40
2018-01-26T00:21:24.952Z,29.57
2018-01-26T00:23:54.463Z,28.20
2018-01-26T00:26:22.899Z,28.50
2018-01-26T00:28:51.171Z,26.40
2018-01-26T00:31:19.510Z,31.83
2018-01-26T00:33:48.755Z,29.83
2018-01-26T00:36:17.107Z,25.93
2018-01-26T00:38:45.783Z,25.43
2018-01-26T00:41:14.316Z,24.97
2018-01-26T00:43:42.759Z,25.43
2018-01-26T00:46:11.112Z,24.57
2018-01-26T00:48:39.727Z,25.13
2018-01-26T00:51:08.026Z,30.83
2018-01-26T00:54:57.419Z,24.60
2018-01-26T00:57:25.779Z,29.03
2018-01-26T00:59:54.074Z,27.67
2018-01-26T01:02:22.402Z,36.13
2018-01-26T01:04:50.734Z,33.03
2018-01-26T01:07:19.062Z,31.07
2018-01-26T01:09:47.664Z,33.13
2018-01-26T01:12:15.990Z,33.53
2018-01-26T01:14:44.272Z,32.03
2018-01-26T01:17:12.592Z,36.37
2018-01-26T01:20:40.093Z,30.73
2018-01-26T01:23:08.408Z,33.00
2018-01-26T01:25:36.719Z,34.70
2018-01-26T01:28:05.055Z,36.10
2018-01-26T01:30:33.486Z,34.23
2018-01-26T01:33:01.775Z,40.07
2018-01-26T01:35:30.259Z,45.10
2018-01-26T01:37:58.713Z,45.13
2018-01-26T01:40:27.087Z,42.60
2018-01-26T01:42:55.362Z,42.77
2018-01-26T01:45:23.675Z,41.70
2018-01-26T01:47:51.985Z,43.10
2018-01-26T01:50:20.306Z,44.97
2018-01-26T01:52:48.608Z,44.03
2018-01-26T01:55:16.994Z,43.13
2018-01-26T01:57:45.319Z,44.83
2018-01-26T02:00:13.625Z,48.50
2018-01-26T02:02:41.955Z,44.97
2018-01-26T02:05:10.272Z,47.40
2018-01-26T02:07:38.607Z,44.80
2018-01-26T02:10:06.946Z,46.60
2018-01-26T02:12:35.280Z,44.87
2018-01-26T02:15:03.711Z,48.80
2018-01-26T02:17:32.010Z,43.17
2018-01-26T02:20:00.251Z,41.93
2018-01-26T02:22:28.630Z,40.27
2018-01-26T02:27:53.586Z,38.03
2018-01-26T02:30:23.017Z,39.30
2018-01-26T02:32:52.191Z,41.00
2018-01-26T02:35:21.904Z,43.40
2018-01-26T02:37:50.563Z,48.53
2018-01-26T02:40:19.163Z,44.63
2018-01-26T02:42:47.825Z,41.40
2018-01-26T02:45:16.804Z,47.03
2018-01-26T02:47:45.503Z,43.93
2018-01-26T02:50:14.412Z,38.70
2018-01-26T02:52:42.938Z,38.57
2018-01-26T02:55:11.675Z,40.63
2018-01-26T02:57:40.407Z,39.30
2018-01-26T03:00:09.400Z,37.80
2018-01-26T03:02:38.097Z,38.87
2018-01-26T03:05:06.803Z,35.77
2018-01-26T03:07:35.516Z,41.93
2018-01-26T03:10:04.202Z,37.83
2018-01-26T03:12:32.860Z,37.63
2018-01-26T03:15:01.668Z,37.10
2018-01-26T03:17:30.421Z,42.80
2018-01-26T03:19:59.889Z,42.17
2018-01-26T03:22:28.853Z,44.30
2018-01-26T03:24:57.888Z,41.97
2018-01-26T03:27:28.005Z,38.60
2018-01-26T03:29:56.527Z,41.13
2018-01-26T03:32:25.260Z,40.30
2018-01-26T03:34:54.067Z,40.53
2018-01-26T03:37:22.733Z,37.40
2018-01-26T03:39:51.642Z,38.63
2018-01-26T03:42:20.172Z,34.57
2018-01-26T03:44:48.829Z,38.10
2018-01-26T03:47:17.733Z,36.20
2018-01-26T03:49:46.277Z,34.57
2018-01-26T03:52:15.840Z,33.00
2018-01-26T03:54:44.568Z,38.10
2018-01-26T03:57:13.129Z,36.50
2018-01-26T03:59:41.743Z,40.17
2018-01-26T04:02:10.469Z,37.83
2018-01-26T04:04:39.271Z,40.17
2018-01-26T04:07:08.052Z,38.70
2018-01-26T04:09:36.685Z,38.03
2018-01-26T04:12:05.374Z,41.43
2018-01-26T04:14:34.118Z,41.93
2018-01-26T04:17:02.829Z,47.00
2018-01-26T04:19:31.386Z,45.97
2018-01-26T04:21:59.959Z,45.20
2018-01-26T04:24:28.816Z,47.30
2018-01-26T04:27:02.046Z,43.27
2018-01-26T04:29:30.620Z,46.50
2018-01-26T04:31:59.177Z,48.60
2018-01-26T04:34:27.777Z,49.30
2018-01-26T04:36:56.417Z,52.40
2018-01-26T04:39:24.972Z,50.20
2018-01-26T04:41:53.825Z,49.10
2018-01-26T04:44:22.604Z,44.03
2018-01-26T04:46:51.309Z,48.93
2018-01-26T04:49:20.321Z,53.63
2018-01-26T04:51:48.987Z,50.00
2018-01-26T04:54:17.567Z,51.10
2018-01-26T04:56:46.202Z,57.37
2018-01-26T04:59:14.864Z,48.07
2018-01-26T05:04:39.059Z,50.43
2018-01-26T05:07:07.507Z,47.10
2018-01-26T05:09:35.972Z,44.77
2018-01-26T05:12:04.400Z,53.50
2018-01-26T05:14:32.761Z,45.83
2018-01-26T05:17:01.145Z,52.53
2018-01-26T05:19:29.413Z,50.67
2018-01-26T05:21:57.728Z,49.60
2018-01-26T05:24:26.192Z,47.40
2018-01-26T05:26:55.921Z,59.33
2018-01-26T05:29:27.931Z,48.73
2018-01-26T05:31:57.565Z,48.83
2018-01-26T05:34:27.544Z,50.10
2018-01-26T05:36:58.174Z,51.63
2018-01-26T05:39:26.951Z,51.60
2018-01-26T05:41:55.454Z,54.07
2018-01-26T05:44:23.929Z,58.60
2018-01-26T05:46:52.260Z,56.07
2018-01-26T05:49:22.118Z,54.50
2018-01-26T05:51:50.464Z,56.83
2018-01-26T05:54:18.727Z,54.27
2018-01-26T05:56:47.174Z,51.40
2018-01-26T05:59:15.620Z,59.93
2018-01-26T06:01:44.128Z,51.37
2018-01-26T06:04:12.534Z,54.67
2018-01-26T06:06:40.920Z,56.13
2018-01-26T06:09:09.232Z,62.17
2018-01-26T06:11:37.565Z,54.80
2018-01-26T06:14:05.921Z,58.63
2018-01-26T06:16:34.231Z,54.57
2018-01-26T06:19:02.764Z,61.10
2018-01-26T06:21:31.067Z,62.53
2018-01-26T06:23:59.387Z,63.40
2018-01-26T06:26:27.838Z,66.30
2018-01-26T06:28:56.707Z,64.93
2018-01-26T06:31:25.136Z,67.00
2018-01-26T06:33:53.535Z,68.77
2018-01-26T06:36:21.963Z,67.60
2018-01-26T06:38:50.555Z,72.07
2018-01-26T06:41:18.859Z,72.20
2018-01-26T06:43:47.179Z,72.00
2018-01-26T06:46:22.100Z,77.80
2018-01-26T06:48:50.554Z,72.23
2018-01-26T06:51:18.902Z,86.47
2018-01-26T06:53:47.315Z,81.17
2018-01-26T06:56:15.647Z,81.07
2018-01-26T06:58:43.931Z,80.83
2018-01-26T07:01:12.246Z,71.27
2018-01-26T07:03:40.595Z,79.40
2018-01-26T07:06:08.920Z,79.47
2018-01-26T07:08:37.398Z,83.93
2018-01-26T07:11:05.899Z,78.27
2018-01-26T07:13:34.188Z,74.93
2018-01-26T07:16:05.400Z,73.13
2018-01-26T07:18:33.820Z,76.90
2018-01-26T07:21:02.267Z,82.93
2018-01-26T07:23:30.563Z,75.90
2018-01-26T07:25:58.904Z,74.23
2018-01-26T07:28:27.173Z,74.70
2018-01-26T07:30:55.497Z,83.47
2018-01-26T07:33:23.836Z,76.03
2018-01-26T07:35:52.155Z,73.43
2018-01-26T07:38:20.443Z,75.33
2018-01-26T07:40:48.762Z,79.47
2018-01-26T07:43:17.138Z,75.70
2018-01-26T07:45:45.666Z,66.57
2018-01-26T07:48:14.915Z,72.30
2018-01-26T07:50:43.223Z,84.57
2018-01-26T07:53:11.531Z,77.90
2018-01-26T07:55:39.843Z,73.57
2018-01-26T07:58:08.154Z,78.60
2018-01-26T08:00:36.456Z,81.90
2018-01-26T08:03:05.343Z,85.83
2018-01-26T08:05:33.798Z,81.70
2018-01-26T08:08:02.162Z,77.60
2018-01-26T08:10:30.502Z,77.90
2018-01-26T08:12:58.806Z,77.07
2018-01-26T08:15:27.215Z,79.37
2018-01-26T08:17:55.551Z,80.13
2018-01-26T08:20:24.124Z,77.10
2018-01-26T08:22:52.417Z,78.57
2018-01-26T08:25:20.743Z,73.67
2018-01-26T08:27:49.066Z,78.37
2018-01-26T08:30:17.403Z,79.03
2018-01-26T08:32:45.726Z,75.10
2018-01-26T08:35:14.254Z,76.33
2018-01-26T08:37:42.513Z,83.50
2018-01-26T08:40:11.011Z,92.00
2018-01-26T08:42:39.286Z,89.37
2018-01-26T08:45:07.604Z,87.23
2018-01-26T08:47:35.903Z,77.43
2018-01-26T08:50:04.335Z,87.93
2018-01-26T08:52:33.468Z,83.10
2018-01-26T08:55:02.118Z,79.67
2018-01-26T08:57:30.492Z,89.70
2018-01-26T08:59:58.754Z,82.50
2018-01-26T09:02:27.163Z,80.77
2018-01-26T09:04:55.466Z,82.53
2018-01-26T09:07:23.810Z,84.10
2018-01-26T09:09:52.115Z,83.20
2018-01-26T09:12:20.496Z,70.57
2018-01-26T09:14:48.891Z,83.10
2018-01-26T09:17:17.291Z,73.67
2018-01-26T09:19:45.783Z,84.43
2018-01-26T09:22:14.159Z,80.73
2018-01-26T09:24:42.499Z,80.13
2018-01-26T09:27:10.891Z,89.47
2018-01-26T09:29:39.183Z,80.67
2018-01-26T09:32:07.759Z,79.07
2018-01-26T09:34:36.052Z,88.43
2018-01-26T09:37:04.396Z,85.10
2018-01-26T09:39:32.773Z,87.40
2018-01-26T09:43:04.153Z,76.93
2018-01-26T09:45:32.491Z,84.40
2018-01-26T09:48:00.993Z,90.03
2018-01-26T09:50:29.327Z,92.33
2018-01-26T09:52:57.606Z,87.13
2018-01-26T09:55:26.099Z,86.83
2018-01-26T09:57:54.374Z,94.60
2018-01-26T10:00:22.914Z,92.50
2018-01-26T10:02:51.415Z,91.80
2018-01-26T10:05:19.765Z,89.73
2018-01-26T10:07:48.067Z,91.13
2018-01-26T10:10:16.424Z,94.57
2018-01-26T10:12:44.702Z,97.60
2018-01-26T10:15:13.035Z,98.00
2018-01-26T10:17:41.436Z,108.70
2018-01-26T10:20:09.926Z,105.03
2018-01-26T10:22:38.404Z,98.13
2018-01-26T10:25:07.744Z,110.37
2018-01-26T10:27:36.318Z,103.77
2018-01-26T10:30:04.675Z,109.40
2018-01-26T10:32:33.043Z,109.80
2018-01-26T10:35:01.300Z,122.43
2018-01-26T10:37:29.625Z,109.10
2018-01-26T10:39:57.929Z,110.93
2018-01-26T10:42:26.315Z,107.33
2018-01-26T10:44:54.634Z,118.93
2018-01-26T10:47:22.976Z,99.63
2018-01-26T10:49:51.685Z,102.20
2018-01-26T10:52:21.068Z,107.30
2018-01-26T10:54:50.306Z,110.63
2018-01-26T10:57:18.611Z,111.37
2018-01-26T10:59:47.043Z,109.80
2018-01-26T11:02:15.345Z,106.83
2018-01-26T11:04:43.623Z,107.53
2018-01-26T11:07:11.946Z,105.77
2018-01-26T11:09:46.892Z,95.77
2018-01-26T11:12:15.403Z,110.27
2018-01-26T11:14:43.849Z,100.47
2018-01-26T11:17:12.359Z,101.90
2018-01-26T11:19:40.811Z,110.53
2018-01-26T11:22:09.141Z,102.27
2018-01-26T11:24:37.526Z,105.73
2018-01-26T11:27:05.927Z,104.43
2018-01-26T11:29:34.374Z,108.87
2018-01-26T11:32:02.702Z,107.53
2018-01-26T11:34:30.985Z,105.50
2018-01-26T11:36:59.310Z,98.73
2018-01-26T11:39:27.650Z,91.10
2018-01-26T11:41:56.147Z,90.40
2018-01-26T11:44:24.456Z,87.07
2018-01-26T11:46:52.823Z,86.20
2018-01-26T11:49:21.187Z,98.67
2018-01-26T11:51:49.542Z,82.13
2018-01-26T11:54:17.924Z,85.67
2018-01-26T11:56:46.774Z,70.13
2018-01-26T11:59:15.214Z,80.60
2018-01-26T12:01:43.572Z,76.67
2018-01-26T12:04:11.858Z,70.90
2018-01-26T12:06:40.343Z,70.77
2018-01-26T12:09:08.670Z,74.83
2018-01-26T12:11:36.979Z,65.57
2018-01-26T12:14:05.282Z,55.87
2018-01-26T12:16:33.650Z,56.23
2018-01-26T12:19:02.098Z,55.70
2018-01-26T12:21:30.464Z,49.67
2018-01-26T12:23:58.738Z,46.47
2018-01-26T12:26:27.081Z,47.17
2018-01-26T12:28:55.607Z,48.10
2018-01-26T12:31:23.991Z,42.17
2018-01-26T12:33:52.289Z,37.90
2018-01-26T12:36:20.590Z,40.43
2018-01-26T12:38:48.883Z,33.53
2018-01-26T12:41:17.195Z,37.67
2018-01-26T12:43:45.586Z,33.53
2018-01-26T12:46:13.908Z,31.63
2018-01-26T12:48:42.214Z,29.53
2018-01-26T12:51:10.551Z,27.07
2018-01-26T12:53:38.840Z,22.47
2018-01-26T12:56:07.156Z,31.03
2018-01-26T12:58:35.658Z,23.53
2018-01-26T13:01:04.050Z,26.07
2018-01-26T13:03:32.397Z,22.70
2018-01-26T13:06:00.723Z,20.87
2018-01-26T13:08:29.147Z,16.27
2018-01-26T13:10:57.457Z,20.83
2018-01-26T13:13:25.732Z,14.30
2018-01-26T13:15:54.234Z,15.30
2018-01-26T13:18:22.539Z,16.53
2018-01-26T13:20:50.851Z,12.10
2018-01-26T13:23:19.236Z,12.87
